sensor_id;sensor_type;location;lat;lon;timestamp;temperature;humidity
46752;DHT22;32497;48.936;9.270;2023-04-05T00:03:46;0.10;69.50
46752;DHT22;32497;48.936;9.270;2023-04-05T00:08:48;0.10;67.80
46752;DHT22;32497;48.936;9.270;2023-04-05T00:13:50;0.00;67.70
46752;DHT22;32497;48.936;9.270;2023-04-05T00:18:51;0.00;67.60
46752;DHT22;32497;48.936;9.270;2023-04-05T00:23:54;0.00;68.30
46752;DHT22;32497;48.936;9.270;2023-04-05T00:28:57;0.00;68.80
46752;DHT22;32497;48.936;9.270;2023-04-05T00:33:58;-3276.70;69.50
46752;DHT22;32497;48.936;9.270;2023-04-05T00:38:59;-3276.70;69.70
46752;DHT22;32497;48.936;9.270;2023-04-05T00:44:01;-3276.50;70.50
46752;DHT22;32497;48.936;9.270;2023-04-05T00:49:03;-3276.40;71.20
46752;DHT22;32497;48.936;9.270;2023-04-05T00:54:04;-3276.30;71.90
46752;DHT22;32497;48.936;9.270;2023-04-05T00:59:07;-3276.20;72.00
46752;DHT22;32497;48.936;9.270;2023-04-05T01:04:09;-3276.10;71.90
46752;DHT22;32497;48.936;9.270;2023-04-05T01:09:20;-3276.10;73.60
46752;DHT22;32497;48.936;9.270;2023-04-05T01:14:23;-3276.00;72.90
46752;DHT22;32497;48.936;9.270;2023-04-05T01:19:27;-3276.10;73.60
46752;DHT22;32497;48.936;9.270;2023-04-05T01:24:37;-3276.10;72.90
46752;DHT22;32497;48.936;9.270;2023-04-05T01:29:56;-3276.00;73.00
46752;DHT22;32497;48.936;9.270;2023-04-05T01:35:08;-3276.00;73.50
46752;DHT22;32497;48.936;9.270;2023-04-05T01:40:11;-3276.00;72.50
46752;DHT22;32497;48.936;9.270;2023-04-05T01:45:14;-3276.00;73.00
46752;DHT22;32497;48.936;9.270;2023-04-05T01:50:15;-3276.00;73.90
46752;DHT22;32497;48.936;9.270;2023-04-05T01:55:16;-3275.90;73.70
46752;DHT22;32497;48.936;9.270;2023-04-05T02:00:18;-3276.00;74.30
46752;DHT22;32497;48.936;9.270;2023-04-05T02:05:20;-3275.80;73.50
46752;DHT22;32497;48.936;9.270;2023-04-05T02:10:21;-3275.90;74.30
46752;DHT22;32497;48.936;9.270;2023-04-05T02:15:23;-3275.90;73.80
46752;DHT22;32497;48.936;9.270;2023-04-05T02:20:25;-3276.00;74.00
46752;DHT22;32497;48.936;9.270;2023-04-05T02:25:26;-3276.00;74.00
46752;DHT22;32497;48.936;9.270;2023-04-05T02:30:28;-3275.90;74.00
46752;DHT22;32497;48.936;9.270;2023-04-05T02:35:29;-3275.80;73.90
46752;DHT22;32497;48.936;9.270;2023-04-05T02:40:30;-3275.80;73.40
46752;DHT22;32497;48.936;9.270;2023-04-05T02:45:35;-3275.80;73.90
46752;DHT22;32497;48.936;9.270;2023-04-05T02:50:36;-3275.80;74.30
46752;DHT22;32497;48.936;9.270;2023-04-05T02:55:37;-3275.70;74.00
46752;DHT22;32497;48.936;9.270;2023-04-05T03:00:40;-3275.60;74.70
46752;DHT22;32497;48.936;9.270;2023-04-05T03:05:42;-3275.50;74.40
46752;DHT22;32497;48.936;9.270;2023-04-05T03:10:46;-3275.40;74.40
46752;DHT22;32497;48.936;9.270;2023-04-05T03:15:54;-3275.20;76.20
46752;DHT22;32497;48.936;9.270;2023-04-05T03:20:56;-3275.10;76.30
46752;DHT22;32497;48.936;9.270;2023-04-05T03:25:59;-3275.10;76.70
46752;DHT22;32497;48.936;9.270;2023-04-05T03:31:04;-3275.10;76.10
46752;DHT22;32497;48.936;9.270;2023-04-05T03:36:08;-3275.00;76.60
46752;DHT22;32497;48.936;9.270;2023-04-05T03:41:12;-3274.90;76.20
46752;DHT22;32497;48.936;9.270;2023-04-05T03:46:15;-3275.00;77.00
46752;DHT22;32497;48.936;9.270;2023-04-05T03:51:16;-3275.00;76.80
46752;DHT22;32497;48.936;9.270;2023-04-05T03:56:17;-3274.80;77.40
46752;DHT22;32497;48.936;9.270;2023-04-05T04:01:24;-3274.80;77.30
46752;DHT22;32497;48.936;9.270;2023-04-05T04:06:25;-3274.70;77.20
46752;DHT22;32497;48.936;9.270;2023-04-05T04:11:27;-3274.60;78.70
46752;DHT22;32497;48.936;9.270;2023-04-05T04:16:29;-3274.60;78.40
46752;DHT22;32497;48.936;9.270;2023-04-05T04:21:51;-3274.60;78.70
46752;DHT22;32497;48.936;9.270;2023-04-05T04:27:08;-3274.60;79.20
46752;DHT22;32497;48.936;9.270;2023-04-05T04:32:21;-3274.50;79.10
46752;DHT22;32497;48.936;9.270;2023-04-05T04:37:44;-3274.40;79.20
46752;DHT22;32497;48.936;9.270;2023-04-05T04:43:09;-3274.20;79.60
46752;DHT22;32497;48.936;9.270;2023-04-05T04:48:22;-3274.20;79.60
46752;DHT22;32497;48.936;9.270;2023-04-05T04:53:31;-3274.30;79.90
46752;DHT22;32497;48.936;9.270;2023-04-05T04:58:32;-3274.40;79.90
46752;DHT22;32497;48.936;9.270;2023-04-05T05:03:40;-3274.50;79.90
46752;DHT22;32497;48.936;9.270;2023-04-05T05:08:41;-3274.70;79.60
46752;DHT22;32497;48.936;9.270;2023-04-05T05:13:43;-3274.80;79.20
46752;DHT22;32497;48.936;9.270;2023-04-05T05:18:51;-3274.80;79.30
46752;DHT22;32497;48.936;9.270;2023-04-05T05:23:52;-3275.00;79.60
46752;DHT22;32497;48.936;9.270;2023-04-05T05:28:53;-3275.10;78.50
46752;DHT22;32497;48.936;9.270;2023-04-05T05:33:57;-3275.00;78.00
46752;DHT22;32497;48.936;9.270;2023-04-05T05:38:59;-3275.20;78.00
46752;DHT22;32497;48.936;9.270;2023-04-05T05:44:00;-3275.20;77.60
46752;DHT22;32497;48.936;9.270;2023-04-05T05:49:03;-3275.50;78.30
46752;DHT22;32497;48.936;9.270;2023-04-05T05:54:04;-3275.60;77.20
46752;DHT22;32497;48.936;9.270;2023-04-05T05:59:05;-3275.80;77.00
46752;DHT22;32497;48.936;9.270;2023-04-05T06:04:07;-3275.90;77.20
46752;DHT22;32497;48.936;9.270;2023-04-05T06:09:09;-3276.00;76.60
46752;DHT22;32497;48.936;9.270;2023-04-05T06:14:10;-3276.10;76.10
46752;DHT22;32497;48.936;9.270;2023-04-05T06:19:13;-3276.30;75.60
46752;DHT22;32497;48.936;9.270;2023-04-05T06:24:14;-3276.40;75.20
46752;DHT22;32497;48.936;9.270;2023-04-05T06:29:15;-3276.50;75.90
46752;DHT22;32497;48.936;9.270;2023-04-05T06:34:17;-3276.70;75.90
46752;DHT22;32497;48.936;9.270;2023-04-05T06:39:18;0.00;75.00
46752;DHT22;32497;48.936;9.270;2023-04-05T06:44:20;0.10;73.70
46752;DHT22;32497;48.936;9.270;2023-04-05T06:49:22;0.20;73.50
46752;DHT22;32497;48.936;9.270;2023-04-05T06:54:24;0.50;72.60
46752;DHT22;32497;48.936;9.270;2023-04-05T06:59:27;0.60;71.00
46752;DHT22;32497;48.936;9.270;2023-04-05T07:09:31;1.00;69.00
46752;DHT22;32497;48.936;9.270;2023-04-05T07:14:35;1.10;70.00
46752;DHT22;32497;48.936;9.270;2023-04-05T07:19:36;1.30;69.20
46752;DHT22;32497;48.936;9.270;2023-04-05T07:24:39;1.50;69.30
46752;DHT22;32497;48.936;9.270;2023-04-05T07:29:40;1.70;68.10
46752;DHT22;32497;48.936;9.270;2023-04-05T07:34:41;1.90;67.00
46752;DHT22;32497;48.936;9.270;2023-04-05T07:39:44;1.90;67.70
46752;DHT22;32497;48.936;9.270;2023-04-05T07:44:45;2.10;67.50
46752;DHT22;32497;48.936;9.270;2023-04-05T07:49:46;2.30;67.50
46752;DHT22;32497;48.936;9.270;2023-04-05T07:54:48;2.60;66.50
46752;DHT22;32497;48.936;9.270;2023-04-05T07:59:50;2.80;64.90
46752;DHT22;32497;48.936;9.270;2023-04-05T08:04:51;3.10;63.90
46752;DHT22;32497;48.936;9.270;2023-04-05T08:09:53;3.40;61.90
46752;DHT22;32497;48.936;9.270;2023-04-05T08:14:55;3.60;59.70
46752;DHT22;32497;48.936;9.270;2023-04-05T08:19:56;3.70;59.00
46752;DHT22;32497;48.936;9.270;2023-04-05T08:24:58;3.80;59.70
46752;DHT22;32497;48.936;9.270;2023-04-05T08:29:59;4.10;58.70
46752;DHT22;32497;48.936;9.270;2023-04-05T08:35:00;4.30;58.40
46752;DHT22;32497;48.936;9.270;2023-04-05T08:40:03;4.30;56.50
46752;DHT22;32497;48.936;9.270;2023-04-05T08:45:08;4.40;55.10
46752;DHT22;32497;48.936;9.270;2023-04-05T08:50:10;4.70;52.80
46752;DHT22;32497;48.936;9.270;2023-04-05T08:55:13;4.80;51.30
46752;DHT22;32497;48.936;9.270;2023-04-05T09:00:15;5.10;51.50
46752;DHT22;32497;48.936;9.270;2023-04-05T09:05:18;5.10;52.70
46752;DHT22;32497;48.936;9.270;2023-04-05T09:10:21;5.30;50.50
46752;DHT22;32497;48.936;9.270;2023-04-05T09:15:24;5.60;48.40
46752;DHT22;32497;48.936;9.270;2023-04-05T09:20:25;5.70;46.20
46752;DHT22;32497;48.936;9.270;2023-04-05T09:25:34;5.80;45.90
46752;DHT22;32497;48.936;9.270;2023-04-05T09:30:36;6.10;45.80
46752;DHT22;32497;48.936;9.270;2023-04-05T09:35:37;6.50;45.20
46752;DHT22;32497;48.936;9.270;2023-04-05T09:40:44;6.80;43.90
46752;DHT22;32497;48.936;9.270;2023-04-05T09:45:47;6.90;43.90
46752;DHT22;32497;48.936;9.270;2023-04-05T09:50:48;7.10;42.40
46752;DHT22;32497;48.936;9.270;2023-04-05T09:55:51;7.10;42.10
46752;DHT22;32497;48.936;9.270;2023-04-05T10:00:52;7.00;41.70
46752;DHT22;32497;48.936;9.270;2023-04-05T10:05:54;7.40;42.10
46752;DHT22;32497;48.936;9.270;2023-04-05T10:10:58;7.70;40.30
46752;DHT22;32497;48.936;9.270;2023-04-05T10:16:01;8.00;40.20
46752;DHT22;32497;48.936;9.270;2023-04-05T10:21:08;8.00;40.50
46752;DHT22;32497;48.936;9.270;2023-04-05T10:26:17;8.40;39.50
46752;DHT22;32497;48.936;9.270;2023-04-05T10:31:24;8.50;38.50
46752;DHT22;32497;48.936;9.270;2023-04-05T10:36:32;8.40;37.40
46752;DHT22;32497;48.936;9.270;2023-04-05T10:41:41;8.40;36.20
46752;DHT22;32497;48.936;9.270;2023-04-05T10:46:46;8.20;39.00
46752;DHT22;32497;48.936;9.270;2023-04-05T10:51:48;8.50;40.10
46752;DHT22;32497;48.936;9.270;2023-04-05T10:56:52;8.50;39.40
46752;DHT22;32497;48.936;9.270;2023-04-05T11:01:54;8.80;37.40
46752;DHT22;32497;48.936;9.270;2023-04-05T11:07:12;9.20;39.10
46752;DHT22;32497;48.936;9.270;2023-04-05T11:12:15;9.50;37.00
46752;DHT22;32497;48.936;9.270;2023-04-05T11:17:27;9.80;37.00
46752;DHT22;32497;48.936;9.270;2023-04-05T11:22:29;9.80;37.10
46752;DHT22;32497;48.936;9.270;2023-04-05T11:27:32;10.00;37.10
46752;DHT22;32497;48.936;9.270;2023-04-05T11:32:38;10.20;34.60
46752;DHT22;32497;48.936;9.270;2023-04-05T11:43:18;10.90;32.60
46752;DHT22;32497;48.936;9.270;2023-04-05T11:48:21;11.80;32.00
46752;DHT22;32497;48.936;9.270;2023-04-05T11:53:22;12.70;30.40
46752;DHT22;32497;48.936;9.270;2023-04-05T11:58:25;12.90;29.40
46752;DHT22;32497;48.936;9.270;2023-04-05T12:03:27;12.10;31.20
46752;DHT22;32497;48.936;9.270;2023-04-05T12:08:38;13.70;30.20
46752;DHT22;32497;48.936;9.270;2023-04-05T12:13:41;15.00;27.70
46752;DHT22;32497;48.936;9.270;2023-04-05T12:18:52;16.40;26.00
46752;DHT22;32497;48.936;9.270;2023-04-05T12:23:53;16.30;23.80
46752;DHT22;32497;48.936;9.270;2023-04-05T12:28:57;16.80;25.60
46752;DHT22;32497;48.936;9.270;2023-04-05T12:33:58;16.70;25.70
46752;DHT22;32497;48.936;9.270;2023-04-05T12:39:04;18.20;24.10
46752;DHT22;32497;48.936;9.270;2023-04-05T12:44:10;18.60;23.10
46752;DHT22;32497;48.936;9.270;2023-04-05T12:49:12;19.60;21.90
46752;DHT22;32497;48.936;9.270;2023-04-05T12:54:19;20.20;21.50
46752;DHT22;32497;48.936;9.270;2023-04-05T12:59:23;20.70;19.90
46752;DHT22;32497;48.936;9.270;2023-04-05T13:04:25;20.10;19.70
46752;DHT22;32497;48.936;9.270;2023-04-05T13:09:26;20.10;21.90
46752;DHT22;32497;48.936;9.270;2023-04-05T13:14:28;20.20;19.90
46752;DHT22;32497;48.936;9.270;2023-04-05T13:19:30;19.50;20.30
46752;DHT22;32497;48.936;9.270;2023-04-05T13:24:31;20.70;19.20
46752;DHT22;32497;48.936;9.270;2023-04-05T13:29:33;21.70;20.30
46752;DHT22;32497;48.936;9.270;2023-04-05T13:34:34;21.50;21.30
46752;DHT22;32497;48.936;9.270;2023-04-05T13:39:36;21.30;19.80
46752;DHT22;32497;48.936;9.270;2023-04-05T13:44:38;21.20;20.00
46752;DHT22;32497;48.936;9.270;2023-04-05T13:49:39;19.30;22.30
46752;DHT22;32497;48.936;9.270;2023-04-05T13:54:40;16.40;25.20
46752;DHT22;32497;48.936;9.270;2023-04-05T13:59:43;16.90;26.10
46752;DHT22;32497;48.936;9.270;2023-04-05T14:04:44;17.80;24.60
46752;DHT22;32497;48.936;9.270;2023-04-05T14:09:45;19.30;23.10
46752;DHT22;32497;48.936;9.270;2023-04-05T14:14:48;20.70;20.80
46752;DHT22;32497;48.936;9.270;2023-04-05T14:19:49;21.20;20.40
46752;DHT22;32497;48.936;9.270;2023-04-05T14:24:50;20.40;21.80
46752;DHT22;32497;48.936;9.270;2023-04-05T14:29:53;20.50;20.70
46752;DHT22;32497;48.936;9.270;2023-04-05T14:34:54;18.90;22.50
46752;DHT22;32497;48.936;9.270;2023-04-05T14:39:55;18.80;23.00
46752;DHT22;32497;48.936;9.270;2023-04-05T14:44:58;18.20;24.50
46752;DHT22;32497;48.936;9.270;2023-04-05T14:49:59;18.20;24.80
46752;DHT22;32497;48.936;9.270;2023-04-05T14:55:00;18.90;22.30
46752;DHT22;32497;48.936;9.270;2023-04-05T15:00:05;18.40;24.70
46752;DHT22;32497;48.936;9.270;2023-04-05T15:05:06;17.10;24.80
46752;DHT22;32497;48.936;9.270;2023-04-05T15:10:08;17.20;24.20
46752;DHT22;32497;48.936;9.270;2023-04-05T15:15:11;17.30;25.50
46752;DHT22;32497;48.936;9.270;2023-04-05T15:20:12;17.20;25.10
46752;DHT22;32497;48.936;9.270;2023-04-05T15:25:14;17.40;24.00
46752;DHT22;32497;48.936;9.270;2023-04-05T15:30:17;17.10;25.10
46752;DHT22;32497;48.936;9.270;2023-04-05T15:35:18;15.90;26.80
46752;DHT22;32497;48.936;9.270;2023-04-05T15:40:19;15.90;27.40
46752;DHT22;32497;48.936;9.270;2023-04-05T15:45:22;15.80;26.40
46752;DHT22;32497;48.936;9.270;2023-04-05T15:50:23;15.80;25.60
46752;DHT22;32497;48.936;9.270;2023-04-05T15:55:24;16.20;26.80
46752;DHT22;32497;48.936;9.270;2023-04-05T16:00:27;16.50;26.70
46752;DHT22;32497;48.936;9.270;2023-04-05T16:05:28;15.40;27.30
46752;DHT22;32497;48.936;9.270;2023-04-05T16:10:29;13.20;30.80
46752;DHT22;32497;48.936;9.270;2023-04-05T16:15:32;11.90;31.80
46752;DHT22;32497;48.936;9.270;2023-04-05T16:20:33;11.30;32.70
46752;DHT22;32497;48.936;9.270;2023-04-05T16:25:35;10.70;34.20
46752;DHT22;32497;48.936;9.270;2023-04-05T16:30:38;10.40;35.10
46752;DHT22;32497;48.936;9.270;2023-04-05T16:35:39;10.00;35.50
46752;DHT22;32497;48.936;9.270;2023-04-05T16:40:40;9.70;37.50
46752;DHT22;32497;48.936;9.270;2023-04-05T16:45:43;9.50;38.20
46752;DHT22;32497;48.936;9.270;2023-04-05T16:50:44;9.40;37.60
46752;DHT22;32497;48.936;9.270;2023-04-05T16:55:45;9.20;37.30
46752;DHT22;32497;48.936;9.270;2023-04-05T17:00:48;9.10;37.40
46752;DHT22;32497;48.936;9.270;2023-04-05T17:05:49;8.90;36.90
46752;DHT22;32497;48.936;9.270;2023-04-05T17:10:50;8.70;37.10
46752;DHT22;32497;48.936;9.270;2023-04-05T17:15:52;8.70;38.30
46752;DHT22;32497;48.936;9.270;2023-04-05T17:20:53;8.60;37.30
46752;DHT22;32497;48.936;9.270;2023-04-05T17:25:55;8.40;38.70
46752;DHT22;32497;48.936;9.270;2023-04-05T17:30:57;8.20;39.80
46752;DHT22;32497;48.936;9.270;2023-04-05T17:35:58;8.10;39.00
46752;DHT22;32497;48.936;9.270;2023-04-05T17:41:00;7.90;40.50
46752;DHT22;32497;48.936;9.270;2023-04-05T17:46:02;7.70;39.60
46752;DHT22;32497;48.936;9.270;2023-04-05T17:51:05;7.60;41.00
46752;DHT22;32497;48.936;9.270;2023-04-05T17:56:07;7.30;41.70
46752;DHT22;32497;48.936;9.270;2023-04-05T18:01:12;7.10;42.50
46752;DHT22;32497;48.936;9.270;2023-04-05T18:06:13;6.80;44.40
46752;DHT22;32497;48.936;9.270;2023-04-05T18:11:15;6.60;43.80
46752;DHT22;32497;48.936;9.270;2023-04-05T18:16:17;6.40;44.50
46752;DHT22;32497;48.936;9.270;2023-04-05T18:21:18;6.20;45.10
46752;DHT22;32497;48.936;9.270;2023-04-05T18:26:19;6.10;46.10
46752;DHT22;32497;48.936;9.270;2023-04-05T18:31:22;5.70;45.90
46752;DHT22;32497;48.936;9.270;2023-04-05T18:36:24;5.70;45.80
46752;DHT22;32497;48.936;9.270;2023-04-05T18:41:25;5.70;46.20
46752;DHT22;32497;48.936;9.270;2023-04-05T18:46:27;5.60;46.60
46752;DHT22;32497;48.936;9.270;2023-04-05T18:51:29;5.50;48.90
46752;DHT22;32497;48.936;9.270;2023-04-05T18:56:30;5.40;47.30
46752;DHT22;32497;48.936;9.270;2023-04-05T19:01:32;5.40;46.40
46752;DHT22;32497;48.936;9.270;2023-04-05T19:06:34;5.40;46.20
46752;DHT22;32497;48.936;9.270;2023-04-05T19:11:35;5.50;45.70
46752;DHT22;32497;48.936;9.270;2023-04-05T19:16:39;5.40;46.00
46752;DHT22;32497;48.936;9.270;2023-04-05T19:21:40;5.30;47.00
46752;DHT22;32497;48.936;9.270;2023-04-05T19:26:54;5.10;47.40
46752;DHT22;32497;48.936;9.270;2023-04-05T19:31:56;5.10;46.50
46752;DHT22;32497;48.936;9.270;2023-04-05T19:36:58;5.00;46.80
46752;DHT22;32497;48.936;9.270;2023-04-05T19:41:59;4.90;46.90
46752;DHT22;32497;48.936;9.270;2023-04-05T19:47:06;4.80;45.50
46752;DHT22;32497;48.936;9.270;2023-04-05T19:52:10;4.70;46.50
46752;DHT22;32497;48.936;9.270;2023-04-05T19:57:13;4.60;48.70
46752;DHT22;32497;48.936;9.270;2023-04-05T20:02:27;4.40;49.10
46752;DHT22;32497;48.936;9.270;2023-04-05T20:07:34;4.20;49.90
46752;DHT22;32497;48.936;9.270;2023-04-05T20:12:36;4.30;49.70
46752;DHT22;32497;48.936;9.270;2023-04-05T20:17:40;4.20;49.70
46752;DHT22;32497;48.936;9.270;2023-04-05T20:22:42;4.20;51.80
46752;DHT22;32497;48.936;9.270;2023-04-05T20:27:46;3.90;54.00
46752;DHT22;32497;48.936;9.270;2023-04-05T20:32:48;3.70;55.50
46752;DHT22;32497;48.936;9.270;2023-04-05T20:37:50;3.40;57.70
46752;DHT22;32497;48.936;9.270;2023-04-05T20:42:51;3.30;57.00
46752;DHT22;32497;48.936;9.270;2023-04-05T20:47:54;3.20;58.60
46752;DHT22;32497;48.936;9.270;2023-04-05T20:52:55;3.20;58.50
46752;DHT22;32497;48.936;9.270;2023-04-05T20:57:56;3.20;57.60
46752;DHT22;32497;48.936;9.270;2023-04-05T21:02:58;3.30;56.90
46752;DHT22;32497;48.936;9.270;2023-04-05T21:08:00;3.30;57.90
46752;DHT22;32497;48.936;9.270;2023-04-05T21:13:01;3.20;57.40
46752;DHT22;32497;48.936;9.270;2023-04-05T21:18:04;3.20;57.40
46752;DHT22;32497;48.936;9.270;2023-04-05T21:23:05;3.30;58.30
46752;DHT22;32497;48.936;9.270;2023-04-05T21:28:06;3.20;59.20
46752;DHT22;32497;48.936;9.270;2023-04-05T21:33:09;3.10;59.70
46752;DHT22;32497;48.936;9.270;2023-04-05T21:38:10;2.90;60.80
46752;DHT22;32497;48.936;9.270;2023-04-05T21:43:12;2.60;62.00
46752;DHT22;32497;48.936;9.270;2023-04-05T21:48:14;2.40;63.90
46752;DHT22;32497;48.936;9.270;2023-04-05T21:53:15;2.20;63.90
46752;DHT22;32497;48.936;9.270;2023-04-05T21:58:16;2.10;64.50
46752;DHT22;32497;48.936;9.270;2023-04-05T22:03:19;2.00;64.70
46752;DHT22;32497;48.936;9.270;2023-04-05T22:08:20;1.80;65.40
46752;DHT22;32497;48.936;9.270;2023-04-05T22:13:21;1.70;66.80
46752;DHT22;32497;48.936;9.270;2023-04-05T22:18:24;1.60;67.80
46752;DHT22;32497;48.936;9.270;2023-04-05T22:23:25;1.40;68.70
46752;DHT22;32497;48.936;9.270;2023-04-05T22:28:26;1.20;69.60
46752;DHT22;32497;48.936;9.270;2023-04-05T22:33:29;1.10;70.20
46752;DHT22;32497;48.936;9.270;2023-04-05T22:38:30;1.00;71.20
46752;DHT22;32497;48.936;9.270;2023-04-05T22:43:31;1.10;71.00
46752;DHT22;32497;48.936;9.270;2023-04-05T22:48:34;1.30;69.70
46752;DHT22;32497;48.936;9.270;2023-04-05T22:53:35;1.30;68.40
46752;DHT22;32497;48.936;9.270;2023-04-05T22:58:36;1.20;68.60
46752;DHT22;32497;48.936;9.270;2023-04-05T23:03:38;1.20;69.70
46752;DHT22;32497;48.936;9.270;2023-04-05T23:08:40;1.10;70.70
46752;DHT22;32497;48.936;9.270;2023-04-05T23:13:41;0.90;71.30
46752;DHT22;32497;48.936;9.270;2023-04-05T23:18:43;0.90;72.20
46752;DHT22;32497;48.936;9.270;2023-04-05T23:23:44;0.80;72.20
46752;DHT22;32497;48.936;9.270;2023-04-05T23:28:46;0.80;72.50
46752;DHT22;32497;48.936;9.270;2023-04-05T23:33:48;0.80;72.30
46752;DHT22;32497;48.936;9.270;2023-04-05T23:38:49;0.80;72.30
46752;DHT22;32497;48.936;9.270;2023-04-05T23:43:50;0.70;72.80
46752;DHT22;32497;48.936;9.270;2023-04-05T23:48:53;0.70;73.30
46752;DHT22;32497;48.936;9.270;2023-04-05T23:53:54;0.60;73.00
46752;DHT22;32497;48.936;9.270;2023-04-05T23:58:55;0.50;73.70
